Time;durP1;ratioP1;P1;durP2;ratioP2;P2;SDS_P1;SDS_P2;PMS_P1;PMS_P2;Temp;Humidity;BMP_temperature;BMP_pressure;BME280_temperature;BME280_humidity;BME280_pressure;Samples;Min_cycle;Max_cycle;Signal;HPM_P1;HPM_P2
2023/06/21 00:00:45;;;;;;;;;;;27.30;53.30;;;;;;5059696;28;19974;-54
2023/06/21 00:03:11;;;;;;;;;;;27.30;52.80;;;;;;5072969;28;19916;-54
2023/06/21 00:05:38;;;;;;;;;;;27.30;53.40;;;;;;5063293;28;20000;-53
2023/06/21 00:08:04;;;;;;;;;;;27.30;53.60;;;;;;5062003;28;19913;-53
2023/06/21 00:10:30;;;;;;;;;;;27.30;53.50;;;;;;5061815;28;19919;-53
2023/06/21 00:12:55;;;;;;;;;;;27.30;53.00;;;;;;5065360;28;19920;-53
2023/06/21 00:15:21;;;;;;;;;;;27.30;53.70;;;;;;5064208;28;19920;-53
2023/06/21 00:17:46;;;;;;;;;;;27.30;53.50;;;;;;5058665;28;20351;-53
2023/06/21 00:20:12;;;;;;;;;;;27.30;53.20;;;;;;5062042;28;20750;-53
2023/06/21 00:22:37;;;;;;;;;;;27.30;53.20;;;;;;5058913;28;19913;-53
2023/06/21 00:25:03;;;;;;;;;;;27.40;53.10;;;;;;5063357;28;20365;-53
2023/06/21 00:27:28;;;;;;;;;;;27.40;53.20;;;;;;5057451;28;19959;-53
2023/06/21 00:29:54;;;;;;;;;;;27.40;53.70;;;;;;5057050;28;20002;-53
2023/06/21 00:32:20;;;;;;;;;;;27.40;52.80;;;;;;5059809;28;19919;-52
2023/06/21 00:34:47;;;;;;;;;;;27.40;52.80;;;;;;5058651;28;20280;-53
2023/06/21 00:37:12;;;;;;;;;;;27.30;53.70;;;;;;5065351;28;19921;-54
2023/06/21 00:39:38;;;;;;;;;;;27.40;53.20;;;;;;5091519;28;19917;-54
2023/06/21 00:42:04;;;;;;;;;;;27.30;53.50;;;;;;5062185;28;19970;-55
2023/06/21 00:44:30;;;;;;;;;;;27.40;53.50;;;;;;5060000;28;19961;-53
2023/06/21 00:46:55;;;;;;;;;;;27.40;52.80;;;;;;5060421;28;20347;-54
2023/06/21 00:49:21;;;;;;;;;;;27.40;53.50;;;;;;5061895;28;20003;-53
2023/06/21 00:51:46;;;;;;;;;;;27.40;53.00;;;;;;5093346;28;19943;-54
2023/06/21 00:54:16;;;;;;;;;;;27.30;52.90;;;;;;5053397;28;19923;-53
2023/06/21 00:56:42;;;;;;;;;;;27.30;52.90;;;;;;5088370;28;19924;-53
2023/06/21 00:59:08;;;;;;;;;;;27.30;53.30;;;;;;5061849;28;20288;-53
2023/06/21 01:01:36;;;;;;;;;;;27.30;53.60;;;;;;5059495;28;19983;-53
2023/06/21 01:04:02;;;;;;;;;;;27.30;53.70;;;;;;5110564;27;19916;-53
2023/06/21 01:06:31;;;;;;;;;;;27.30;53.50;;;;;;5076016;28;19920;-54
2023/06/21 01:09:15;;;;;;;;;;;27.30;54.20;;;;;;5069081;28;20020;-53
2023/06/21 01:11:43;;;;;;;;;;;27.20;54.10;;;;;;5058290;28;20924;-53
2023/06/21 01:14:31;;;;;;;;;;;27.20;54.60;;;;;;5063517;28;19927;-55
2023/06/21 01:16:57;;;;;;;;;;;27.30;55.40;;;;;;5049871;28;19917;-54
2023/06/21 01:19:33;;;;;;;;;;;27.20;53.50;;;;;;5060099;28;19974;-53
2023/06/21 01:22:00;;;;;;;;;;;27.30;54.10;;;;;;5061055;28;19932;-53
2023/06/21 01:24:28;;;;;;;;;;;27.20;54.10;;;;;;5067639;28;20361;-53
2023/06/21 01:27:09;;;;;;;;;;;27.30;54.40;;;;;;5058241;28;19912;-54
2023/06/21 01:29:34;;;;;;;;;;;27.30;54.90;;;;;;5058968;28;19912;-53
2023/06/21 01:32:03;;;;;;;;;;;27.30;54.60;;;;;;5059080;28;20293;-53
2023/06/21 01:34:28;;;;;;;;;;;27.30;54.80;;;;;;5053587;28;19916;-54
2023/06/21 01:36:54;;;;;;;;;;;27.30;54.60;;;;;;5058422;28;19981;-54
2023/06/21 01:39:19;;;;;;;;;;;27.30;54.20;;;;;;5049055;28;19995;-53
2023/06/21 01:41:46;;;;;;;;;;;27.30;54.50;;;;;;5060224;28;20410;-54
2023/06/21 01:44:13;;;;;;;;;;;27.30;55.50;;;;;;5061136;28;19923;-54
2023/06/21 01:46:38;;;;;;;;;;;27.30;54.80;;;;;;5052807;28;19960;-53
2023/06/21 01:49:06;;;;;;;;;;;27.20;54.80;;;;;;5092732;28;20038;-54
2023/06/21 01:51:31;;;;;;;;;;;27.20;55.30;;;;;;5089165;28;19912;-53
2023/06/21 01:53:57;;;;;;;;;;;27.20;55.50;;;;;;5058156;28;19924;-54
2023/06/21 01:56:23;;;;;;;;;;;27.20;55.30;;;;;;5089284;28;20357;-53
2023/06/21 01:58:48;;;;;;;;;;;27.20;54.90;;;;;;5051855;28;19909;-54
2023/06/21 02:01:14;;;;;;;;;;;27.20;55.80;;;;;;5067690;28;20015;-53
2023/06/21 02:03:40;;;;;;;;;;;27.10;56.10;;;;;;5061374;28;19927;-53
2023/06/21 02:06:06;;;;;;;;;;;27.10;56.60;;;;;;5058854;28;19946;-54
2023/06/21 02:08:32;;;;;;;;;;;27.00;56.60;;;;;;5060439;28;19979;-53
2023/06/21 02:10:58;;;;;;;;;;;27.00;57.20;;;;;;5061039;28;19982;-54
2023/06/21 02:13:26;;;;;;;;;;;27.00;56.70;;;;;;5058117;28;20360;-54
2023/06/21 02:15:52;;;;;;;;;;;27.00;57.30;;;;;;5060159;28;19999;-54
2023/06/21 02:18:20;;;;;;;;;;;27.00;57.30;;;;;;5058894;28;19991;-54
2023/06/21 02:20:47;;;;;;;;;;;27.00;57.50;;;;;;5058686;28;19951;-54
2023/06/21 02:23:12;;;;;;;;;;;26.90;57.70;;;;;;5059309;28;20349;-54
2023/06/21 02:25:37;;;;;;;;;;;26.90;57.90;;;;;;5059796;28;19928;-53
2023/06/21 02:28:03;;;;;;;;;;;26.90;58.00;;;;;;5062109;28;19968;-54
2023/06/21 02:30:29;;;;;;;;;;;26.90;58.00;;;;;;5067232;28;19912;-53
2023/06/21 02:32:54;;;;;;;;;;;26.90;58.10;;;;;;5060724;28;19925;-54
2023/06/21 02:35:20;;;;;;;;;;;26.90;58.20;;;;;;5058452;28;19936;-53
2023/06/21 02:37:47;;;;;;;;;;;26.90;58.20;;;;;;5087708;28;19999;-54
2023/06/21 02:40:13;;;;;;;;;;;26.90;58.50;;;;;;5060328;28;19931;-54
2023/06/21 02:42:39;;;;;;;;;;;26.80;58.50;;;;;;5057390;28;19912;-54
2023/06/21 02:45:05;;;;;;;;;;;26.80;58.40;;;;;;5059711;28;20514;-53
2023/06/21 02:47:30;;;;;;;;;;;26.80;58.70;;;;;;5057791;28;19919;-54
2023/06/21 02:49:56;;;;;;;;;;;26.90;58.70;;;;;;5049142;28;19919;-54
2023/06/21 02:52:21;;;;;;;;;;;26.90;58.50;;;;;;5059705;28;19913;-54
2023/06/21 02:54:47;;;;;;;;;;;26.80;58.60;;;;;;5091267;28;19923;-54
2023/06/21 02:57:12;;;;;;;;;;;26.90;58.20;;;;;;5060275;28;19943;-54
2023/06/21 02:59:38;;;;;;;;;;;26.80;58.60;;;;;;5061247;28;19978;-54
2023/06/21 03:02:03;;;;;;;;;;;26.80;58.60;;;;;;5059006;28;19973;-54
2023/06/21 03:04:29;;;;;;;;;;;26.80;58.50;;;;;;5095903;28;19908;-53
2023/06/21 03:06:54;;;;;;;;;;;26.90;58.30;;;;;;5063310;28;19912;-54
2023/06/21 03:09:20;;;;;;;;;;;26.80;58.40;;;;;;5055868;28;19936;-54
2023/06/21 03:11:45;;;;;;;;;;;26.80;58.70;;;;;;5062300;28;20438;-54
2023/06/21 03:14:11;;;;;;;;;;;26.80;58.60;;;;;;5063492;28;19966;-54
2023/06/21 03:16:36;;;;;;;;;;;26.80;58.40;;;;;;5066936;28;19917;-55
2023/06/21 03:19:02;;;;;;;;;;;26.80;58.70;;;;;;5063366;28;19969;-54
2023/06/21 03:21:27;;;;;;;;;;;26.90;58.70;;;;;;5058952;28;20009;-54
2023/06/21 03:23:53;;;;;;;;;;;26.90;58.60;;;;;;5063925;28;20408;-54
2023/06/21 03:26:19;;;;;;;;;;;26.80;58.60;;;;;;5065363;28;19962;-54
2023/06/21 03:28:44;;;;;;;;;;;26.80;58.80;;;;;;5063074;28;19912;-54
2023/06/21 03:31:10;;;;;;;;;;;26.90;58.80;;;;;;5093376;28;19963;-54
2023/06/21 03:33:35;;;;;;;;;;;26.80;58.70;;;;;;5061891;28;20416;-54
2023/06/21 03:36:00;;;;;;;;;;;26.90;58.70;;;;;;5063811;28;19913;-55
2023/06/21 03:38:26;;;;;;;;;;;26.80;58.80;;;;;;5070118;28;19951;-54
2023/06/21 03:40:51;;;;;;;;;;;26.80;58.90;;;;;;5075125;28;19924;-54
2023/06/21 03:43:17;;;;;;;;;;;26.80;58.90;;;;;;5077413;28;19916;-55
2023/06/21 03:45:42;;;;;;;;;;;26.80;58.40;;;;;;5072286;28;20389;-54
2023/06/21 03:48:08;;;;;;;;;;;26.80;58.80;;;;;;5072303;28;20284;-54
2023/06/21 03:50:33;;;;;;;;;;;26.80;58.80;;;;;;5080572;28;19908;-55
2023/06/21 03:52:59;;;;;;;;;;;26.80;58.80;;;;;;5095920;28;19912;-54
2023/06/21 03:55:25;;;;;;;;;;;26.80;59.00;;;;;;5090480;28;19908;-54
2023/06/21 03:57:50;;;;;;;;;;;26.80;59.10;;;;;;5056348;28;20289;-54
2023/06/21 04:00:16;;;;;;;;;;;26.80;59.10;;;;;;5055299;28;20011;-54
2023/06/21 04:02:42;;;;;;;;;;;26.70;59.10;;;;;;5066015;28;19908;-54
2023/06/21 04:05:10;;;;;;;;;;;26.80;59.20;;;;;;5075512;28;19912;-54
2023/06/21 04:07:36;;;;;;;;;;;26.70;59.30;;;;;;5103509;27;19913;-54
2023/06/21 04:10:01;;;;;;;;;;;26.70;59.50;;;;;;5086599;28;19944;-54
2023/06/21 04:12:28;;;;;;;;;;;26.70;59.20;;;;;;5055221;28;19970;-55
2023/06/21 04:14:54;;;;;;;;;;;26.80;59.40;;;;;;5061844;28;19967;-54
2023/06/21 04:17:19;;;;;;;;;;;26.70;59.40;;;;;;5060442;28;19956;-54
2023/06/21 04:19:44;;;;;;;;;;;26.70;59.40;;;;;;5054623;28;20388;-54
2023/06/21 04:22:10;;;;;;;;;;;26.70;59.30;;;;;;5061137;28;20281;-54
2023/06/21 04:24:36;;;;;;;;;;;26.70;59.40;;;;;;5063714;28;19982;-54
2023/06/21 04:27:02;;;;;;;;;;;26.70;59.30;;;;;;5063392;28;19912;-54
2023/06/21 04:29:29;;;;;;;;;;;26.70;59.60;;;;;;5063773;28;19916;-54
2023/06/21 04:31:55;;;;;;;;;;;26.80;59.50;;;;;;5070046;28;19913;-54
2023/06/21 04:34:20;;;;;;;;;;;26.80;59.60;;;;;;5063051;28;20324;-54
2023/06/21 04:36:47;;;;;;;;;;;26.80;59.10;;;;;;5061638;28;19913;-54
2023/06/21 04:39:16;;;;;;;;;;;26.80;59.00;;;;;;5094846;28;20285;-54
2023/06/21 04:41:41;;;;;;;;;;;26.80;59.30;;;;;;5061511;28;19937;-54
2023/06/21 04:44:06;;;;;;;;;;;26.90;59.60;;;;;;5058264;28;19927;-54
2023/06/21 04:46:35;;;;;;;;;;;26.80;59.70;;;;;;5054498;28;19928;-55
2023/06/21 04:49:04;;;;;;;;;;;26.80;59.90;;;;;;5060281;28;19995;-54
2023/06/21 04:51:32;;;;;;;;;;;26.80;59.90;;;;;;5058829;28;19912;-54
2023/06/21 04:53:58;;;;;;;;;;;26.70;60.10;;;;;;5060555;28;19921;-54
2023/06/21 04:56:25;;;;;;;;;;;26.70;60.00;;;;;;5063153;28;20280;-54
2023/06/21 04:58:50;;;;;;;;;;;26.60;60.20;;;;;;5063713;28;19927;-54
2023/06/21 05:01:16;;;;;;;;;;;26.70;60.20;;;;;;5060554;28;19920;-54
2023/06/21 05:03:41;;;;;;;;;;;26.60;60.00;;;;;;5062391;28;19908;-54
2023/06/21 05:06:07;;;;;;;;;;;26.70;59.90;;;;;;5067818;28;19916;-54
2023/06/21 05:08:32;;;;;;;;;;;26.80;59.90;;;;;;5093535;28;19920;-54
2023/06/21 05:10:58;;;;;;;;;;;26.80;59.90;;;;;;5064508;28;20379;-54
2023/06/21 05:13:23;;;;;;;;;;;26.70;60.00;;;;;;5072288;28;20426;-55
2023/06/21 05:15:49;;;;;;;;;;;26.70;60.20;;;;;;5084082;28;20311;-54
2023/06/21 05:18:14;;;;;;;;;;;26.70;60.30;;;;;;5057661;28;19978;-54
2023/06/21 05:20:40;;;;;;;;;;;26.70;60.30;;;;;;5058579;28;19916;-54
2023/06/21 05:23:05;;;;;;;;;;;26.60;60.20;;;;;;5101985;28;19912;-54
2023/06/21 05:25:31;;;;;;;;;;;26.60;60.50;;;;;;5068394;28;19966;-54
2023/06/21 05:27:56;;;;;;;;;;;26.60;60.30;;;;;;5053618;28;19916;-54
2023/06/21 05:30:22;;;;;;;;;;;26.60;60.40;;;;;;5053821;28;19924;-54
2023/06/21 05:32:47;;;;;;;;;;;26.60;60.60;;;;;;5089616;28;19971;-55
2023/06/21 05:35:12;;;;;;;;;;;26.60;60.70;;;;;;5058383;28;19916;-55
2023/06/21 05:37:38;;;;;;;;;;;26.60;60.60;;;;;;5072877;28;19913;-54
2023/06/21 05:40:07;;;;;;;;;;;26.60;60.50;;;;;;5072217;28;19919;-54
2023/06/21 05:42:32;;;;;;;;;;;26.60;60.80;;;;;;5073560;28;19912;-54
2023/06/21 05:44:58;;;;;;;;;;;26.60;60.80;;;;;;5067021;28;19920;-54
2023/06/21 05:47:23;;;;;;;;;;;26.60;60.90;;;;;;5073345;28;19919;-54
2023/06/21 05:49:49;;;;;;;;;;;26.60;61.10;;;;;;5080278;28;19999;-55
2023/06/21 05:52:15;;;;;;;;;;;26.60;61.00;;;;;;5093694;28;19915;-54
2023/06/21 05:54:43;;;;;;;;;;;26.60;61.40;;;;;;5092912;28;19912;-54
2023/06/21 05:57:08;;;;;;;;;;;26.60;61.30;;;;;;5076584;28;20377;-55
2023/06/21 05:59:34;;;;;;;;;;;26.60;61.20;;;;;;5073210;28;19915;-54
2023/06/21 06:01:59;;;;;;;;;;;26.60;61.20;;;;;;5068500;28;19943;-55
2023/06/21 06:04:25;;;;;;;;;;;26.60;61.00;;;;;;5069995;28;19916;-54
2023/06/21 06:06:50;;;;;;;;;;;26.60;61.00;;;;;;5059624;28;19943;-55
2023/06/21 06:09:15;;;;;;;;;;;26.70;61.10;;;;;;5061706;28;19927;-54
2023/06/21 06:11:41;;;;;;;;;;;26.70;60.80;;;;;;5060018;28;19931;-54
2023/06/21 06:14:08;;;;;;;;;;;26.70;60.70;;;;;;5067522;28;20039;-54
2023/06/21 06:16:34;;;;;;;;;;;26.70;60.80;;;;;;5068766;28;19916;-54
2023/06/21 06:18:59;;;;;;;;;;;26.70;60.90;;;;;;5071817;28;19966;-53
2023/06/21 06:21:25;;;;;;;;;;;26.60;61.00;;;;;;5058238;28;20403;-53
2023/06/21 06:23:51;;;;;;;;;;;26.70;60.90;;;;;;5071035;28;19951;-54
2023/06/21 06:26:23;;;;;;;;;;;26.70;60.90;;;;;;5052253;28;19915;-54
2023/06/21 06:28:49;;;;;;;;;;;26.60;60.80;;;;;;5088253;28;20403;-54
2023/06/21 06:31:14;;;;;;;;;;;26.70;60.70;;;;;;5072699;28;19909;-54
2023/06/21 06:33:40;;;;;;;;;;;26.70;60.70;;;;;;5069870;28;19999;-54
2023/06/21 06:36:05;;;;;;;;;;;26.70;60.50;;;;;;5086326;27;19930;-53
2023/06/21 06:38:31;;;;;;;;;;;26.70;60.70;;;;;;5057112;28;19920;-54
2023/06/21 06:40:56;;;;;;;;;;;26.70;61.10;;;;;;5059695;28;19923;-54
2023/06/21 06:43:22;;;;;;;;;;;26.70;61.90;;;;;;5056475;28;19920;-54
2023/06/21 06:45:47;;;;;;;;;;;26.70;61.50;;;;;;5098963;28;19920;-52
2023/06/21 06:48:12;;;;;;;;;;;26.60;61.30;;;;;;5051656;28;20360;-52
2023/06/21 06:50:38;;;;;;;;;;;26.70;61.70;;;;;;5070022;28;19916;-53
2023/06/21 06:53:05;;;;;;;;;;;26.70;61.30;;;;;;5067920;28;20348;-53
2023/06/21 06:55:31;;;;;;;;;;;26.70;61.80;;;;;;5079757;28;19969;-52
2023/06/21 06:57:58;;;;;;;;;;;26.70;61.60;;;;;;5072973;28;20028;-53
2023/06/21 07:00:23;;;;;;;;;;;26.70;61.70;;;;;;5058706;28;19985;-53
2023/06/21 07:02:49;;;;;;;;;;;26.70;61.70;;;;;;5066032;28;19917;-53
2023/06/21 07:05:14;;;;;;;;;;;26.70;61.60;;;;;;5066024;28;20341;-53
2023/06/21 07:07:40;;;;;;;;;;;26.70;61.20;;;;;;5066363;28;19912;-53
2023/06/21 07:10:05;;;;;;;;;;;26.70;61.70;;;;;;5062276;28;20432;-53
2023/06/21 07:12:31;;;;;;;;;;;26.60;61.50;;;;;;5063300;28;19940;-52
2023/06/21 07:14:56;;;;;;;;;;;26.60;61.30;;;;;;5060521;28;19912;-53
2023/06/21 07:17:23;;;;;;;;;;;26.60;61.10;;;;;;5057707;28;20373;-54
2023/06/21 07:19:49;;;;;;;;;;;26.60;61.30;;;;;;5069296;28;19928;-54
2023/06/21 07:22:14;;;;;;;;;;;26.60;61.00;;;;;;5057972;28;20371;-54
2023/06/21 07:24:40;;;;;;;;;;;26.70;61.00;;;;;;5066816;28;19975;-53
2023/06/21 07:27:05;;;;;;;;;;;26.60;60.80;;;;;;5069516;28;19913;-54
2023/06/21 07:29:30;;;;;;;;;;;26.60;60.70;;;;;;5069769;28;20353;-54
2023/06/21 07:31:56;;;;;;;;;;;26.70;60.60;;;;;;5060889;28;20012;-54
2023/06/21 07:34:21;;;;;;;;;;;26.70;60.30;;;;;;5058362;28;19948;-53
2023/06/21 07:36:47;;;;;;;;;;;26.70;60.30;;;;;;5053963;28;19912;-53
2023/06/21 07:39:13;;;;;;;;;;;26.60;60.20;;;;;;5098625;28;19916;-52
2023/06/21 07:41:38;;;;;;;;;;;26.60;60.20;;;;;;5057068;28;24076;-54
2023/06/21 07:44:04;;;;;;;;;;;26.60;60.20;;;;;;5059196;28;19959;-53
2023/06/21 07:46:29;;;;;;;;;;;26.60;60.20;;;;;;5051995;28;19996;-54
2023/06/21 07:48:55;;;;;;;;;;;26.70;60.20;;;;;;5067354;28;19912;-54
2023/06/21 07:51:20;;;;;;;;;;;26.70;60.70;;;;;;5092453;28;19912;-54
2023/06/21 07:53:46;;;;;;;;;;;26.70;59.80;;;;;;5053963;28;19944;-52
2023/06/21 07:56:14;;;;;;;;;;;26.70;59.70;;;;;;5059213;28;19927;-54
2023/06/21 07:58:43;;;;;;;;;;;26.70;60.00;;;;;;5057692;28;20007;-53
2023/06/21 08:01:09;;;;;;;;;;;26.70;59.80;;;;;;5063745;28;20341;-53
2023/06/21 08:03:34;;;;;;;;;;;26.70;59.80;;;;;;5060509;28;19970;-53
2023/06/21 08:06:00;;;;;;;;;;;26.70;59.90;;;;;;5067042;28;19952;-53
2023/06/21 08:08:25;;;;;;;;;;;26.80;59.70;;;;;;5060267;28;20387;-53
2023/06/21 08:10:51;;;;;;;;;;;26.70;59.60;;;;;;5066229;28;19912;-53
2023/06/21 08:13:22;;;;;;;;;;;26.70;59.60;;;;;;5059224;28;20242;-53
2023/06/21 08:15:47;;;;;;;;;;;26.70;59.40;;;;;;5071696;28;20392;-52
2023/06/21 08:18:13;;;;;;;;;;;26.70;59.20;;;;;;5073030;28;19913;-53
2023/06/21 08:20:40;;;;;;;;;;;26.80;59.20;;;;;;5069522;28;19929;-52
2023/06/21 08:23:06;;;;;;;;;;;26.70;59.20;;;;;;5070359;28;19913;-53
2023/06/21 08:25:32;;;;;;;;;;;26.70;59.00;;;;;;5055090;28;20234;-54
2023/06/21 08:27:57;;;;;;;;;;;26.70;59.20;;;;;;5066727;28;20024;-53
2023/06/21 08:30:23;;;;;;;;;;;26.70;59.00;;;;;;5060846;28;19924;-53
2023/06/21 08:32:48;;;;;;;;;;;26.70;59.00;;;;;;5069984;28;19917;-52
2023/06/21 08:35:13;;;;;;;;;;;26.70;58.70;;;;;;5062347;28;19920;-53
2023/06/21 08:37:39;;;;;;;;;;;26.70;58.80;;;;;;5063241;28;19939;-52
2023/06/21 08:40:05;;;;;;;;;;;26.70;58.70;;;;;;5060037;28;20411;-53
2023/06/21 08:42:30;;;;;;;;;;;26.60;58.50;;;;;;5071372;28;19919;-52
2023/06/21 08:44:56;;;;;;;;;;;26.60;58.70;;;;;;5099715;28;19948;-52
2023/06/21 08:47:22;;;;;;;;;;;26.70;58.60;;;;;;5062169;28;19920;-52
2023/06/21 08:49:49;;;;;;;;;;;26.70;58.40;;;;;;5063798;28;19959;-53
2023/06/21 08:52:17;;;;;;;;;;;26.70;58.30;;;;;;5058518;28;19995;-52
2023/06/21 08:54:43;;;;;;;;;;;26.70;58.20;;;;;;5072094;28;19913;-53
2023/06/21 08:57:15;;;;;;;;;;;26.70;58.20;;;;;;5067909;28;19920;-53
2023/06/21 08:59:41;;;;;;;;;;;26.70;58.10;;;;;;5068917;28;19912;-53
2023/06/21 09:02:27;;;;;;;;;;;26.70;58.10;;;;;;5072090;28;20050;-53
2023/06/21 09:04:53;;;;;;;;;;;26.70;58.10;;;;;;5060086;28;19916;-53
2023/06/21 09:07:20;;;;;;;;;;;26.70;58.00;;;;;;5065763;28;19921;-53
2023/06/21 09:09:45;;;;;;;;;;;26.60;57.90;;;;;;5093083;28;19912;-54
2023/06/21 09:12:11;;;;;;;;;;;26.70;57.70;;;;;;5055000;28;20289;-54
2023/06/21 09:14:37;;;;;;;;;;;26.70;57.80;;;;;;5088816;28;20289;-53
2023/06/21 09:17:03;;;;;;;;;;;26.70;57.60;;;;;;5060613;28;19916;-53
2023/06/21 09:19:28;;;;;;;;;;;26.70;57.50;;;;;;5072014;28;19913;-53
2023/06/21 09:21:55;;;;;;;;;;;26.70;57.50;;;;;;5101885;28;19916;-53
2023/06/21 09:24:21;;;;;;;;;;;26.70;57.40;;;;;;5102718;28;19917;-53
2023/06/21 09:26:46;;;;;;;;;;;26.70;57.20;;;;;;5064816;28;19923;-53
2023/06/21 09:29:12;;;;;;;;;;;26.70;57.10;;;;;;5073032;28;19935;-53
2023/06/21 09:31:37;;;;;;;;;;;26.70;57.00;;;;;;5069872;28;19922;-53
2023/06/21 09:34:03;;;;;;;;;;;26.70;56.90;;;;;;5071058;28;19923;-53
2023/06/21 09:36:28;;;;;;;;;;;26.70;56.80;;;;;;5103351;28;19913;-53
2023/06/21 09:39:05;;;;;;;;;;;26.70;56.70;;;;;;5067648;28;19916;-53
2023/06/21 09:41:30;;;;;;;;;;;26.70;56.70;;;;;;5103185;28;19921;-53
2023/06/21 09:43:56;;;;;;;;;;;26.70;56.70;;;;;;5072080;28;19963;-52
2023/06/21 09:46:22;;;;;;;;;;;26.70;56.70;;;;;;5121899;27;19923;-53
2023/06/21 09:48:47;;;;;;;;;;;26.70;56.60;;;;;;5065960;28;19913;-54
2023/06/21 09:51:14;;;;;;;;;;;26.70;56.60;;;;;;5093648;28;19916;-53
2023/06/21 09:53:43;;;;;;;;;;;26.70;56.40;;;;;;5073007;28;19913;-53
2023/06/21 09:56:08;;;;;;;;;;;26.70;56.30;;;;;;5071407;28;19920;-53
2023/06/21 09:58:34;;;;;;;;;;;26.70;56.00;;;;;;5072910;28;19912;-54
2023/06/21 10:01:04;;;;;;;;;;;26.80;56.00;;;;;;5061715;28;19967;-53
2023/06/21 10:03:30;;;;;;;;;;;26.70;55.80;;;;;;5101753;28;19920;-53
2023/06/21 10:05:56;;;;;;;;;;;26.70;55.70;;;;;;5070011;28;19919;-53
2023/06/21 10:08:22;;;;;;;;;;;26.70;55.60;;;;;;5075991;28;19924;-53
2023/06/21 10:10:47;;;;;;;;;;;26.70;55.40;;;;;;5074389;28;20458;-53
2023/06/21 10:13:13;;;;;;;;;;;26.80;55.50;;;;;;5086467;28;19908;-53
2023/06/21 10:15:38;;;;;;;;;;;26.80;55.50;;;;;;5063051;28;19909;-53
2023/06/21 10:18:06;;;;;;;;;;;26.80;55.50;;;;;;5066312;28;20003;-54
2023/06/21 10:20:31;;;;;;;;;;;26.90;55.50;;;;;;5066098;28;19916;-53
2023/06/21 10:22:57;;;;;;;;;;;26.80;55.40;;;;;;5067400;28;20356;-53
2023/06/21 10:25:22;;;;;;;;;;;26.90;55.40;;;;;;5102694;28;19922;-53
2023/06/21 10:27:48;;;;;;;;;;;26.80;55.50;;;;;;5105006;28;19974;-57
2023/06/21 10:30:13;;;;;;;;;;;26.90;55.50;;;;;;5103524;28;20461;-53
2023/06/21 10:32:39;;;;;;;;;;;26.90;55.40;;;;;;5102030;28;19912;-54
2023/06/21 10:35:07;;;;;;;;;;;26.80;55.30;;;;;;5067079;28;19912;-53
2023/06/21 10:37:36;;;;;;;;;;;26.90;55.10;;;;;;5074751;28;20032;-54
2023/06/21 10:40:07;;;;;;;;;;;26.90;55.10;;;;;;5100476;28;20011;-53
2023/06/21 10:42:33;;;;;;;;;;;27.00;55.10;;;;;;5069687;28;19917;-53
2023/06/21 10:45:01;;;;;;;;;;;26.90;55.10;;;;;;5101393;28;19916;-52
2023/06/21 10:47:27;;;;;;;;;;;27.00;55.00;;;;;;5098633;28;19943;-53
2023/06/21 10:49:58;;;;;;;;;;;27.00;55.10;;;;;;5101211;28;19917;-53
2023/06/21 10:52:24;;;;;;;;;;;27.00;54.80;;;;;;5069435;28;19920;-53
2023/06/21 10:54:49;;;;;;;;;;;27.00;54.80;;;;;;5071564;28;20391;-53
2023/06/21 10:57:14;;;;;;;;;;;27.00;54.70;;;;;;5094556;28;20036;-53
2023/06/21 10:59:40;;;;;;;;;;;27.00;54.60;;;;;;5071932;28;19999;-53
2023/06/21 11:02:05;;;;;;;;;;;27.00;54.40;;;;;;5104280;28;19923;-53
2023/06/21 11:04:31;;;;;;;;;;;27.00;54.40;;;;;;5092919;28;19909;-53
2023/06/21 11:06:58;;;;;;;;;;;27.00;54.20;;;;;;5100710;28;20791;-53
2023/06/21 11:09:23;;;;;;;;;;;27.00;53.90;;;;;;5084775;28;19917;-53
2023/06/21 11:11:50;;;;;;;;;;;27.00;53.70;;;;;;5063357;28;19918;-53
2023/06/21 11:14:19;;;;;;;;;;;27.10;53.70;;;;;;5085235;28;19908;-53
2023/06/21 11:16:44;;;;;;;;;;;27.10;53.60;;;;;;5068347;28;19913;-54
2023/06/21 11:19:11;;;;;;;;;;;27.10;53.50;;;;;;5071547;28;19916;-54
2023/06/21 11:21:45;;;;;;;;;;;27.00;53.40;;;;;;5088097;28;19982;-54
2023/06/21 11:24:15;;;;;;;;;;;27.00;53.30;;;;;;5050795;28;20011;-53
2023/06/21 11:26:51;;;;;;;;;;;27.10;53.20;;;;;;5070341;28;19908;-53
2023/06/21 11:29:16;;;;;;;;;;;27.20;53.20;;;;;;5070704;28;19913;-54
2023/06/21 11:31:42;;;;;;;;;;;27.20;53.10;;;;;;5066334;28;19966;-54
2023/06/21 11:34:07;;;;;;;;;;;27.20;53.00;;;;;;5071811;28;19986;-52
2023/06/21 11:36:34;;;;;;;;;;;27.20;52.90;;;;;;5093289;28;20077;-53
2023/06/21 11:39:06;;;;;;;;;;;27.20;53.00;;;;;;5075191;28;19909;-53
2023/06/21 11:41:32;;;;;;;;;;;27.20;52.70;;;;;;5073393;28;19912;-53
2023/06/21 11:43:58;;;;;;;;;;;27.30;52.50;;;;;;5067928;28;20377;-53
2023/06/21 11:46:24;;;;;;;;;;;27.30;52.50;;;;;;5068551;28;20003;-54
2023/06/21 11:48:51;;;;;;;;;;;27.40;52.40;;;;;;5057966;28;19913;-53
2023/06/21 11:51:17;;;;;;;;;;;27.30;52.40;;;;;;5088116;28;19912;-53
2023/06/21 11:53:42;;;;;;;;;;;27.30;52.30;;;;;;5093688;28;19939;-54
2023/06/21 11:56:16;;;;;;;;;;;27.30;52.40;;;;;;5073498;28;19962;-53
2023/06/21 11:58:41;;;;;;;;;;;27.30;52.30;;;;;;5072267;28;19963;-53
2023/06/21 12:01:07;;;;;;;;;;;27.20;52.20;;;;;;5067340;28;19967;-54
2023/06/21 12:03:32;;;;;;;;;;;27.30;52.20;;;;;;5072077;28;20281;-54
2023/06/21 12:05:58;;;;;;;;;;;27.20;52.10;;;;;;5070060;28;19917;-54
2023/06/21 12:08:26;;;;;;;;;;;27.30;51.90;;;;;;5072772;28;19928;-53
2023/06/21 12:10:52;;;;;;;;;;;27.30;51.90;;;;;;5098617;28;20020;-54
2023/06/21 12:13:18;;;;;;;;;;;27.30;52.00;;;;;;5066340;28;20003;-54
2023/06/21 12:15:59;;;;;;;;;;;27.30;51.60;;;;;;5059457;28;19916;-54
2023/06/21 12:18:25;;;;;;;;;;;27.30;51.60;;;;;;5064205;28;20409;-54
2023/06/21 12:20:53;;;;;;;;;;;27.40;51.60;;;;;;5074203;28;19912;-53
2023/06/21 12:23:18;;;;;;;;;;;27.40;51.40;;;;;;5066172;28;19924;-54
2023/06/21 12:25:44;;;;;;;;;;;27.40;51.10;;;;;;5072436;28;19912;-54
2023/06/21 12:28:12;;;;;;;;;;;27.50;51.20;;;;;;5065946;28;19944;-54
2023/06/21 12:30:47;;;;;;;;;;;27.50;51.00;;;;;;5067498;28;19912;-54
2023/06/21 12:33:12;;;;;;;;;;;27.60;50.90;;;;;;5072966;28;20014;-54
2023/06/21 12:35:38;;;;;;;;;;;27.60;50.70;;;;;;5074248;28;20072;-53
2023/06/21 12:38:16;;;;;;;;;;;27.60;50.80;;;;;;5063783;28;20424;-53
2023/06/21 12:40:54;;;;;;;;;;;27.50;50.90;;;;;;5071420;28;19924;-53
2023/06/21 12:43:38;;;;;;;;;;;27.60;50.70;;;;;;5065797;28;19912;-54
2023/06/21 12:46:04;;;;;;;;;;;27.50;50.90;;;;;;5072474;28;19917;-53
2023/06/21 12:48:30;;;;;;;;;;;27.50;50.90;;;;;;5074323;28;19915;-54
2023/06/21 12:50:55;;;;;;;;;;;27.60;50.80;;;;;;5080423;28;19909;-54
2023/06/21 12:53:25;;;;;;;;;;;27.60;50.90;;;;;;5063315;28;20336;-53
2023/06/21 12:55:51;;;;;;;;;;;27.70;51.00;;;;;;5065702;28;20066;-53
2023/06/21 12:58:16;;;;;;;;;;;27.70;51.00;;;;;;5122341;27;19963;-53
2023/06/21 13:00:42;;;;;;;;;;;27.60;51.10;;;;;;5070989;28;19924;-54
2023/06/21 13:03:07;;;;;;;;;;;27.50;51.20;;;;;;5069604;28;19950;-54
2023/06/21 13:05:33;;;;;;;;;;;27.60;51.30;;;;;;5095666;27;19912;-54
2023/06/21 13:07:58;;;;;;;;;;;27.60;51.30;;;;;;5063197;28;19916;-53
2023/06/21 13:10:24;;;;;;;;;;;27.60;51.40;;;;;;5060866;28;19959;-54
2023/06/21 13:12:49;;;;;;;;;;;27.60;51.30;;;;;;5095194;28;19913;-54
2023/06/21 13:15:15;;;;;;;;;;;27.50;51.30;;;;;;5061042;28;19993;-53
2023/06/21 13:17:40;;;;;;;;;;;27.50;51.40;;;;;;5069331;28;19975;-54
2023/06/21 13:20:06;;;;;;;;;;;27.50;51.40;;;;;;5077058;28;20320;-54
2023/06/21 13:22:31;;;;;;;;;;;27.60;51.50;;;;;;5065211;28;20225;-53
2023/06/21 13:24:57;;;;;;;;;;;27.60;51.20;;;;;;5064498;28;19912;-53
2023/06/21 13:27:22;;;;;;;;;;;27.70;51.30;;;;;;5064187;28;20328;-54
2023/06/21 13:29:48;;;;;;;;;;;27.70;51.40;;;;;;5072982;28;19999;-53
2023/06/21 13:32:13;;;;;;;;;;;27.70;51.30;;;;;;5066236;28;19913;-54
2023/06/21 13:34:39;;;;;;;;;;;27.80;50.90;;;;;;5061632;28;19913;-54
2023/06/21 13:37:04;;;;;;;;;;;27.80;50.50;;;;;;5068797;28;19916;-53
2023/06/21 13:39:30;;;;;;;;;;;27.80;50.70;;;;;;5060607;28;19916;-54
2023/06/21 13:41:55;;;;;;;;;;;27.70;50.90;;;;;;5061590;28;19923;-54
2023/06/21 13:44:21;;;;;;;;;;;27.80;51.00;;;;;;5069892;28;19982;-54
2023/06/21 13:46:46;;;;;;;;;;;27.70;51.10;;;;;;5073028;28;20371;-54
2023/06/21 13:49:11;;;;;;;;;;;27.60;51.30;;;;;;5064135;28;20381;-53
2023/06/21 13:51:37;;;;;;;;;;;27.60;51.50;;;;;;5052959;28;19928;-54
2023/06/21 13:54:02;;;;;;;;;;;27.60;51.50;;;;;;5088193;28;19943;-53
2023/06/21 13:56:29;;;;;;;;;;;27.50;51.70;;;;;;5061114;28;19924;-54
2023/06/21 13:58:54;;;;;;;;;;;27.60;51.60;;;;;;5070777;28;19923;-53
2023/06/21 14:01:20;;;;;;;;;;;27.60;51.50;;;;;;5092601;28;20016;-53
2023/06/21 14:03:46;;;;;;;;;;;27.70;51.60;;;;;;5059376;28;20467;-53
2023/06/21 14:06:11;;;;;;;;;;;27.70;51.40;;;;;;5064937;28;19917;-53
2023/06/21 14:08:36;;;;;;;;;;;27.60;51.50;;;;;;5059770;28;19913;-53
2023/06/21 14:11:02;;;;;;;;;;;27.60;51.70;;;;;;5061168;28;19916;-53